sensor_id;sensor_type;location;lat;lon;timestamp;pressure;altitude;pressure_sealevel;temperature;humidity
66801;BME280;53703;50.326;19.122;2024-01-30T00:01:01;100497.85;;;19.07;38.83
66801;BME280;53703;50.326;19.122;2024-01-30T00:03:51;100492.17;;;19.06;38.74
66801;BME280;53703;50.326;19.122;2024-01-30T00:06:25;100495.30;;;19.04;38.82
66801;BME280;53703;50.326;19.122;2024-01-30T00:08:58;100487.98;;;19.10;38.66
66801;BME280;53703;50.326;19.122;2024-01-30T00:11:31;100493.89;;;19.04;38.73
66801;BME280;53703;50.326;19.122;2024-01-30T00:14:05;100494.67;;;19.05;38.58
66801;BME280;53703;50.326;19.122;2024-01-30T00:16:38;100490.44;;;19.15;38.59
66801;BME280;53703;50.326;19.122;2024-01-30T00:19:12;100489.40;;;19.06;38.69
66801;BME280;53703;50.326;19.122;2024-01-30T00:21:45;100488.65;;;19.05;38.52
66801;BME280;53703;50.326;19.122;2024-01-30T00:24:19;100493.17;;;19.08;38.38
66801;BME280;53703;50.326;19.122;2024-01-30T00:26:52;100492.45;;;19.08;38.59
66801;BME280;53703;50.326;19.122;2024-01-30T00:29:26;100492.56;;;19.03;38.48
66801;BME280;53703;50.326;19.122;2024-01-30T00:32:02;100491.70;;;19.10;38.50
66801;BME280;53703;50.326;19.122;2024-01-30T00:34:36;100492.79;;;19.05;38.55
66801;BME280;53703;50.326;19.122;2024-01-30T00:37:09;100492.54;;;19.04;38.54
66801;BME280;53703;50.326;19.122;2024-01-30T00:39:43;100492.02;;;19.05;38.51
66801;BME280;53703;50.326;19.122;2024-01-30T00:42:16;100494.33;;;19.01;38.58
66801;BME280;53703;50.326;19.122;2024-01-30T00:44:49;100496.39;;;19.00;38.56
66801;BME280;53703;50.326;19.122;2024-01-30T00:47:23;100495.39;;;19.03;38.55
66801;BME280;53703;50.326;19.122;2024-01-30T00:49:56;100492.95;;;19.03;38.45
66801;BME280;53703;50.326;19.122;2024-01-30T00:52:29;100489.19;;;18.95;38.65
66801;BME280;53703;50.326;19.122;2024-01-30T00:55:04;100487.66;;;18.94;38.70
66801;BME280;53703;50.326;19.122;2024-01-30T00:57:37;100493.02;;;19.00;38.37
66801;BME280;53703;50.326;19.122;2024-01-30T01:00:15;100491.49;;;19.04;38.39
66801;BME280;53703;50.326;19.122;2024-01-30T01:02:49;100486.23;;;19.01;38.44
66801;BME280;53703;50.326;19.122;2024-01-30T01:05:23;100484.50;;;19.02;38.53
66801;BME280;53703;50.326;19.122;2024-01-30T01:07:56;100479.02;;;19.00;38.31
66801;BME280;53703;50.326;19.122;2024-01-30T01:10:30;100472.63;;;19.01;38.41
66801;BME280;53703;50.326;19.122;2024-01-30T01:13:03;100467.89;;;19.03;38.35
66801;BME280;53703;50.326;19.122;2024-01-30T01:15:36;100463.42;;;18.99;38.27
66801;BME280;53703;50.326;19.122;2024-01-30T01:18:10;100461.10;;;18.99;38.33
66801;BME280;53703;50.326;19.122;2024-01-30T01:20:43;100456.08;;;18.98;38.29
66801;BME280;53703;50.326;19.122;2024-01-30T01:23:17;100451.62;;;19.00;38.39
66801;BME280;53703;50.326;19.122;2024-01-30T01:25:50;100452.66;;;18.98;38.35
66801;BME280;53703;50.326;19.122;2024-01-30T01:28:24;100453.29;;;18.97;38.31
66801;BME280;53703;50.326;19.122;2024-01-30T01:30:57;100456.17;;;19.01;38.38
66801;BME280;53703;50.326;19.122;2024-01-30T01:33:37;100449.77;;;19.01;38.19
66801;BME280;53703;50.326;19.122;2024-01-30T01:36:11;100446.47;;;19.00;38.21
66801;BME280;53703;50.326;19.122;2024-01-30T01:38:44;100447.80;;;19.03;38.49
66801;BME280;53703;50.326;19.122;2024-01-30T01:41:17;100446.96;;;19.00;38.28
66801;BME280;53703;50.326;19.122;2024-01-30T01:43:51;100446.17;;;19.06;38.54
66801;BME280;53703;50.326;19.122;2024-01-30T01:46:26;100445.42;;;19.05;38.39
66801;BME280;53703;50.326;19.122;2024-01-30T01:49:01;100448.85;;;19.05;38.48
66801;BME280;53703;50.326;19.122;2024-01-30T01:51:37;100448.55;;;19.01;38.51
66801;BME280;53703;50.326;19.122;2024-01-30T01:54:14;100448.25;;;18.99;38.65
66801;BME280;53703;50.326;19.122;2024-01-30T01:56:47;100445.38;;;19.02;38.58
66801;BME280;53703;50.326;19.122;2024-01-30T01:59:21;100446.11;;;19.01;38.68
66801;BME280;53703;50.326;19.122;2024-01-30T02:01:56;100447.62;;;19.04;38.47
66801;BME280;53703;50.326;19.122;2024-01-30T02:04:30;100446.16;;;18.96;38.64
66801;BME280;53703;50.326;19.122;2024-01-30T02:07:04;100447.44;;;18.99;38.68
66801;BME280;53703;50.326;19.122;2024-01-30T02:09:37;100445.10;;;18.95;38.67
66801;BME280;53703;50.326;19.122;2024-01-30T02:12:11;100446.31;;;18.97;38.61
66801;BME280;53703;50.326;19.122;2024-01-30T02:14:49;100445.70;;;19.00;38.57
66801;BME280;53703;50.326;19.122;2024-01-30T02:17:23;100447.23;;;18.98;38.53
66801;BME280;53703;50.326;19.122;2024-01-30T02:19:56;100443.06;;;18.94;38.59
66801;BME280;53703;50.326;19.122;2024-01-30T02:22:30;100437.49;;;18.94;38.64
66801;BME280;53703;50.326;19.122;2024-01-30T02:25:06;100437.57;;;18.99;38.63
66801;BME280;53703;50.326;19.122;2024-01-30T02:27:40;100435.52;;;18.95;38.66
66801;BME280;53703;50.326;19.122;2024-01-30T02:30:15;100433.35;;;19.00;38.45
66801;BME280;53703;50.326;19.122;2024-01-30T02:32:48;100436.19;;;18.97;38.58
66801;BME280;53703;50.326;19.122;2024-01-30T02:35:21;100433.39;;;18.98;38.43
66801;BME280;53703;50.326;19.122;2024-01-30T02:37:55;100431.61;;;19.02;38.45
66801;BME280;53703;50.326;19.122;2024-01-30T02:40:28;100431.17;;;18.96;38.66
66801;BME280;53703;50.326;19.122;2024-01-30T02:43:03;100433.39;;;18.98;38.49
66801;BME280;53703;50.326;19.122;2024-01-30T02:45:36;100432.47;;;19.00;38.50
66801;BME280;53703;50.326;19.122;2024-01-30T02:48:10;100428.72;;;18.99;38.47
66801;BME280;53703;50.326;19.122;2024-01-30T02:50:44;100431.55;;;18.99;38.50
66801;BME280;53703;50.326;19.122;2024-01-30T02:53:18;100433.66;;;19.04;38.41
66801;BME280;53703;50.326;19.122;2024-01-30T02:55:51;100432.86;;;19.03;38.52
66801;BME280;53703;50.326;19.122;2024-01-30T02:58:24;100435.47;;;19.00;38.39
66801;BME280;53703;50.326;19.122;2024-01-30T03:00:58;100435.13;;;19.05;38.26
66801;BME280;53703;50.326;19.122;2024-01-30T03:03:32;100433.09;;;19.05;38.42
66801;BME280;53703;50.326;19.122;2024-01-30T03:06:06;100431.52;;;19.03;38.30
66801;BME280;53703;50.326;19.122;2024-01-30T03:08:44;100428.60;;;19.05;38.24
66801;BME280;53703;50.326;19.122;2024-01-30T03:11:18;100426.39;;;19.02;38.46
66801;BME280;53703;50.326;19.122;2024-01-30T03:13:51;100431.29;;;19.06;38.32
66801;BME280;53703;50.326;19.122;2024-01-30T03:16:24;100429.81;;;19.08;38.38
66801;BME280;53703;50.326;19.122;2024-01-30T03:18:58;100424.80;;;19.10;38.01
66801;BME280;53703;50.326;19.122;2024-01-30T03:21:33;100421.59;;;19.02;38.21
66801;BME280;53703;50.326;19.122;2024-01-30T03:24:07;100424.91;;;19.04;38.15
66801;BME280;53703;50.326;19.122;2024-01-30T03:26:41;100419.98;;;18.94;38.20
66801;BME280;53703;50.326;19.122;2024-01-30T03:29:15;100419.66;;;18.94;38.39
66801;BME280;53703;50.326;19.122;2024-01-30T03:31:48;100416.40;;;19.01;38.25
66801;BME280;53703;50.326;19.122;2024-01-30T03:34:22;100416.95;;;18.97;38.11
66801;BME280;53703;50.326;19.122;2024-01-30T03:36:56;100423.66;;;18.94;38.31
66801;BME280;53703;50.326;19.122;2024-01-30T03:39:30;100422.22;;;18.96;38.33
66801;BME280;53703;50.326;19.122;2024-01-30T03:42:03;100421.67;;;18.98;38.29
66801;BME280;53703;50.326;19.122;2024-01-30T03:44:37;100423.25;;;18.96;38.15
66801;BME280;53703;50.326;19.122;2024-01-30T03:47:10;100420.20;;;18.92;38.44
66801;BME280;53703;50.326;19.122;2024-01-30T03:49:44;100421.29;;;19.00;38.08
66801;BME280;53703;50.326;19.122;2024-01-30T03:52:18;100421.40;;;18.95;38.13
66801;BME280;53703;50.326;19.122;2024-01-30T03:54:51;100419.06;;;18.96;38.26
66801;BME280;53703;50.326;19.122;2024-01-30T03:57:25;100419.33;;;18.97;38.20
66801;BME280;53703;50.326;19.122;2024-01-30T03:59:58;100416.46;;;18.93;38.33
66801;BME280;53703;50.326;19.122;2024-01-30T04:02:34;100414.05;;;18.93;38.27
66801;BME280;53703;50.326;19.122;2024-01-30T04:05:09;100418.20;;;18.95;38.29
66801;BME280;53703;50.326;19.122;2024-01-30T04:07:42;100417.16;;;18.99;38.14
66801;BME280;53703;50.326;19.122;2024-01-30T04:10:16;100418.91;;;18.98;38.07
66801;BME280;53703;50.326;19.122;2024-01-30T04:12:49;100413.73;;;18.92;38.19
66801;BME280;53703;50.326;19.122;2024-01-30T04:15:23;100413.63;;;18.97;38.05
66801;BME280;53703;50.326;19.122;2024-01-30T04:17:58;100409.92;;;19.01;37.88
66801;BME280;53703;50.326;19.122;2024-01-30T04:20:32;100411.73;;;19.02;37.93
66801;BME280;53703;50.326;19.122;2024-01-30T04:23:05;100411.11;;;19.05;37.86
66801;BME280;53703;50.326;19.122;2024-01-30T04:25:39;100406.52;;;18.98;37.89
66801;BME280;53703;50.326;19.122;2024-01-30T04:28:13;100404.63;;;18.98;37.83
66801;BME280;53703;50.326;19.122;2024-01-30T04:30:47;100406.55;;;18.99;37.87
66801;BME280;53703;50.326;19.122;2024-01-30T04:33:20;100404.25;;;19.03;37.83
66801;BME280;53703;50.326;19.122;2024-01-30T04:35:54;100408.42;;;18.99;38.03
66801;BME280;53703;50.326;19.122;2024-01-30T04:38:27;100412.93;;;18.95;37.91
66801;BME280;53703;50.326;19.122;2024-01-30T04:41:01;100415.92;;;19.02;37.89
66801;BME280;53703;50.326;19.122;2024-01-30T04:43:34;100419.77;;;19.09;37.73
66801;BME280;53703;50.326;19.122;2024-01-30T04:46:08;100419.55;;;19.06;37.58
66801;BME280;53703;50.326;19.122;2024-01-30T04:48:42;100416.89;;;19.01;37.61
66801;BME280;53703;50.326;19.122;2024-01-30T04:51:15;100415.91;;;18.89;37.87
66801;BME280;53703;50.326;19.122;2024-01-30T04:53:49;100416.44;;;18.95;37.80
66801;BME280;53703;50.326;19.122;2024-01-30T04:56:22;100419.55;;;18.95;38.02
66801;BME280;53703;50.326;19.122;2024-01-30T04:58:56;100412.77;;;18.97;37.86
66801;BME280;53703;50.326;19.122;2024-01-30T05:01:29;100415.46;;;18.94;37.85
66801;BME280;53703;50.326;19.122;2024-01-30T05:04:03;100413.66;;;18.93;38.03
66801;BME280;53703;50.326;19.122;2024-01-30T05:06:36;100413.55;;;18.95;37.94
66801;BME280;53703;50.326;19.122;2024-01-30T05:09:10;100415.69;;;18.94;38.00
66801;BME280;53703;50.326;19.122;2024-01-30T05:11:44;100414.23;;;18.90;38.08
66801;BME280;53703;50.326;19.122;2024-01-30T05:14:17;100410.50;;;18.93;38.10
66801;BME280;53703;50.326;19.122;2024-01-30T05:16:51;100411.67;;;18.93;38.04
66801;BME280;53703;50.326;19.122;2024-01-30T05:19:24;100413.54;;;18.93;38.12
66801;BME280;53703;50.326;19.122;2024-01-30T05:21:58;100412.27;;;18.93;37.86
66801;BME280;53703;50.326;19.122;2024-01-30T05:24:31;100411.80;;;18.92;38.07
66801;BME280;53703;50.326;19.122;2024-01-30T05:27:05;100412.36;;;18.94;37.97
66801;BME280;53703;50.326;19.122;2024-01-30T05:29:38;100416.86;;;18.98;37.90
66801;BME280;53703;50.326;19.122;2024-01-30T05:32:12;100417.72;;;18.99;37.88
66801;BME280;53703;50.326;19.122;2024-01-30T05:34:45;100416.20;;;18.96;37.91
66801;BME280;53703;50.326;19.122;2024-01-30T05:37:19;100418.95;;;18.98;37.81
66801;BME280;53703;50.326;19.122;2024-01-30T05:39:53;100420.20;;;18.92;38.01
66801;BME280;53703;50.326;19.122;2024-01-30T05:42:26;100418.45;;;18.96;38.13
66801;BME280;53703;50.326;19.122;2024-01-30T05:44:59;100420.91;;;19.07;37.96
66801;BME280;53703;50.326;19.122;2024-01-30T05:47:33;100418.03;;;18.98;37.83
66801;BME280;53703;50.326;19.122;2024-01-30T05:50:08;100419.14;;;19.02;37.78
66801;BME280;53703;50.326;19.122;2024-01-30T05:52:42;100416.65;;;19.00;37.70
66801;BME280;53703;50.326;19.122;2024-01-30T05:55:15;100418.73;;;18.96;37.90
66801;BME280;53703;50.326;19.122;2024-01-30T05:57:49;100419.97;;;19.03;37.75
66801;BME280;53703;50.326;19.122;2024-01-30T06:00:23;100420.71;;;19.04;37.57
66801;BME280;53703;50.326;19.122;2024-01-30T06:02:56;100417.84;;;19.03;37.63
66801;BME280;53703;50.326;19.122;2024-01-30T06:05:30;100422.05;;;18.99;37.82
66801;BME280;53703;50.326;19.122;2024-01-30T06:08:05;100420.30;;;18.99;37.56
66801;BME280;53703;50.326;19.122;2024-01-30T06:10:39;100421.73;;;18.98;37.79
66801;BME280;53703;50.326;19.122;2024-01-30T06:13:12;100420.89;;;18.93;37.76
66801;BME280;53703;50.326;19.122;2024-01-30T06:15:46;100421.80;;;19.00;37.66
66801;BME280;53703;50.326;19.122;2024-01-30T06:18:19;100423.73;;;18.99;37.54
66801;BME280;53703;50.326;19.122;2024-01-30T06:20:53;100424.28;;;19.05;37.45
66801;BME280;53703;50.326;19.122;2024-01-30T06:23:26;100424.36;;;19.06;37.48
66801;BME280;53703;50.326;19.122;2024-01-30T06:25:59;100424.39;;;19.13;37.37
66801;BME280;53703;50.326;19.122;2024-01-30T06:28:33;100423.67;;;18.95;37.52
66801;BME280;53703;50.326;19.122;2024-01-30T06:31:06;100421.05;;;19.01;37.61
66801;BME280;53703;50.326;19.122;2024-01-30T06:33:40;100418.90;;;18.96;37.59
66801;BME280;53703;50.326;19.122;2024-01-30T06:36:14;100417.84;;;18.96;37.43
66801;BME280;53703;50.326;19.122;2024-01-30T06:38:48;100423.59;;;18.89;37.57
66801;BME280;53703;50.326;19.122;2024-01-30T06:41:21;100421.34;;;19.00;37.45
66801;BME280;53703;50.326;19.122;2024-01-30T06:43:55;100424.90;;;19.05;37.38
66801;BME280;53703;50.326;19.122;2024-01-30T06:46:28;100421.09;;;18.94;37.50
66801;BME280;53703;50.326;19.122;2024-01-30T06:49:02;100422.13;;;19.02;37.31
66801;BME280;53703;50.326;19.122;2024-01-30T06:51:35;100424.16;;;18.96;37.52
66801;BME280;53703;50.326;19.122;2024-01-30T06:54:09;100418.98;;;18.95;37.36
66801;BME280;53703;50.326;19.122;2024-01-30T06:56:42;100416.63;;;18.92;37.49
66801;BME280;53703;50.326;19.122;2024-01-30T06:59:16;100416.28;;;18.92;37.42
66801;BME280;53703;50.326;19.122;2024-01-30T07:01:49;100419.61;;;18.96;37.42
66801;BME280;53703;50.326;19.122;2024-01-30T07:04:23;100428.02;;;18.95;37.58
66801;BME280;53703;50.326;19.122;2024-01-30T07:06:57;100429.33;;;18.95;37.44
66801;BME280;53703;50.326;19.122;2024-01-30T07:09:31;100429.55;;;18.97;37.47
66801;BME280;53703;50.326;19.122;2024-01-30T07:12:05;100431.86;;;19.08;37.41
66801;BME280;53703;50.326;19.122;2024-01-30T07:14:38;100436.90;;;19.00;37.38
66801;BME280;53703;50.326;19.122;2024-01-30T07:17:12;100440.40;;;19.02;37.46
66801;BME280;53703;50.326;19.122;2024-01-30T07:19:45;100439.91;;;19.04;37.40
66801;BME280;53703;50.326;19.122;2024-01-30T07:22:19;100439.20;;;19.01;37.38
66801;BME280;53703;50.326;19.122;2024-01-30T07:24:52;100436.95;;;19.05;37.27
66801;BME280;53703;50.326;19.122;2024-01-30T07:27:25;100438.03;;;18.99;37.32
66801;BME280;53703;50.326;19.122;2024-01-30T07:29:59;100437.95;;;18.95;37.41
66801;BME280;53703;50.326;19.122;2024-01-30T07:32:32;100437.23;;;18.93;37.38
66801;BME280;53703;50.326;19.122;2024-01-30T07:35:07;100437.40;;;18.95;37.48
66801;BME280;53703;50.326;19.122;2024-01-30T07:37:41;100435.06;;;18.95;37.41
66801;BME280;53703;50.326;19.122;2024-01-30T07:40:15;100432.53;;;18.97;37.34
66801;BME280;53703;50.326;19.122;2024-01-30T07:42:49;100427.82;;;18.93;37.36
66801;BME280;53703;50.326;19.122;2024-01-30T07:45:23;100426.18;;;18.87;37.34
66801;BME280;53703;50.326;19.122;2024-01-30T07:47:57;100428.36;;;18.91;37.35
66801;BME280;53703;50.326;19.122;2024-01-30T07:50:32;100429.41;;;18.93;37.53
66801;BME280;53703;50.326;19.122;2024-01-30T07:53:05;100426.80;;;18.92;37.24
66801;BME280;53703;50.326;19.122;2024-01-30T07:55:39;100432.39;;;18.94;37.25
66801;BME280;53703;50.326;19.122;2024-01-30T07:58:12;100432.11;;;18.89;37.32
66801;BME280;53703;50.326;19.122;2024-01-30T08:00:46;100429.98;;;18.90;37.44
66801;BME280;53703;50.326;19.122;2024-01-30T08:03:19;100431.77;;;18.92;37.42
66801;BME280;53703;50.326;19.122;2024-01-30T08:05:53;100431.38;;;18.85;37.52
66801;BME280;53703;50.326;19.122;2024-01-30T08:08:27;100433.70;;;18.82;37.36
66801;BME280;53703;50.326;19.122;2024-01-30T08:11:00;100431.88;;;18.87;37.54
66801;BME280;53703;50.326;19.122;2024-01-30T08:13:34;100435.35;;;18.83;37.59
66801;BME280;53703;50.326;19.122;2024-01-30T08:16:08;100434.75;;;18.80;37.51
66801;BME280;53703;50.326;19.122;2024-01-30T08:18:46;100439.05;;;18.86;37.56
66801;BME280;53703;50.326;19.122;2024-01-30T08:21:19;100432.83;;;18.84;37.54
66801;BME280;53703;50.326;19.122;2024-01-30T08:23:53;100434.27;;;18.86;37.67
66801;BME280;53703;50.326;19.122;2024-01-30T08:26:27;100434.64;;;18.84;37.57
66801;BME280;53703;50.326;19.122;2024-01-30T08:29:00;100434.36;;;18.82;37.73
66801;BME280;53703;50.326;19.122;2024-01-30T08:31:34;100435.88;;;18.87;37.62
66801;BME280;53703;50.326;19.122;2024-01-30T08:34:08;100435.79;;;18.85;37.72
66801;BME280;53703;50.326;19.122;2024-01-30T08:36:41;100435.48;;;18.90;37.63
66801;BME280;53703;50.326;19.122;2024-01-30T08:39:15;100432.39;;;18.87;37.76
66801;BME280;53703;50.326;19.122;2024-01-30T08:41:49;100433.14;;;18.87;37.74
66801;BME280;53703;50.326;19.122;2024-01-30T08:44:22;100430.90;;;18.87;37.75
66801;BME280;53703;50.326;19.122;2024-01-30T08:46:55;100436.67;;;18.85;37.68
66801;BME280;53703;50.326;19.122;2024-01-30T08:49:31;100439.08;;;18.92;37.77
66801;BME280;53703;50.326;19.122;2024-01-30T08:52:05;100442.42;;;18.88;37.83
66801;BME280;53703;50.326;19.122;2024-01-30T08:54:39;100437.61;;;18.85;37.75
66801;BME280;53703;50.326;19.122;2024-01-30T08:57:12;100441.39;;;18.85;37.82
66801;BME280;53703;50.326;19.122;2024-01-30T08:59:46;100437.73;;;18.88;37.60
66801;BME280;53703;50.326;19.122;2024-01-30T09:02:20;100439.95;;;18.82;37.78
66801;BME280;53703;50.326;19.122;2024-01-30T09:04:54;100436.45;;;18.81;37.72
66801;BME280;53703;50.326;19.122;2024-01-30T09:07:28;100437.09;;;18.81;38.06
66801;BME280;53703;50.326;19.122;2024-01-30T09:10:01;100429.01;;;18.90;37.80
66801;BME280;53703;50.326;19.122;2024-01-30T09:12:35;100431.34;;;18.86;37.92
66801;BME280;53703;50.326;19.122;2024-01-30T09:15:11;100433.10;;;18.86;37.79
66801;BME280;53703;50.326;19.122;2024-01-30T09:17:44;100430.55;;;18.92;37.68
66801;BME280;53703;50.326;19.122;2024-01-30T09:20:18;100429.85;;;18.83;37.77
66801;BME280;53703;50.326;19.122;2024-01-30T09:22:52;100429.49;;;18.83;37.73
66801;BME280;53703;50.326;19.122;2024-01-30T09:25:26;100432.30;;;18.85;37.83
66801;BME280;53703;50.326;19.122;2024-01-30T09:28:00;100428.63;;;18.77;38.05
66801;BME280;53703;50.326;19.122;2024-01-30T09:30:34;100425.59;;;18.94;37.43
66801;BME280;53703;50.326;19.122;2024-01-30T09:33:07;100426.23;;;18.94;38.24
66801;BME280;53703;50.326;19.122;2024-01-30T09:35:41;100419.22;;;18.84;38.24
66801;BME280;53703;50.326;19.122;2024-01-30T09:38:15;100424.14;;;18.84;38.15
66801;BME280;53703;50.326;19.122;2024-01-30T09:40:55;100422.34;;;18.85;38.06
66801;BME280;53703;50.326;19.122;2024-01-30T09:43:32;100419.31;;;18.80;38.00
66801;BME280;53703;50.326;19.122;2024-01-30T09:46:07;100420.23;;;18.81;38.05
66801;BME280;53703;50.326;19.122;2024-01-30T09:48:42;100414.79;;;19.11;38.03
66801;BME280;53703;50.326;19.122;2024-01-30T09:51:16;100416.39;;;18.92;38.18
66801;BME280;53703;50.326;19.122;2024-01-30T09:53:51;100415.20;;;18.86;39.09
66801;BME280;53703;50.326;19.122;2024-01-30T09:56:25;100414.30;;;18.90;39.55
66801;BME280;53703;50.326;19.122;2024-01-30T09:58:58;100407.70;;;18.92;39.77
66801;BME280;53703;50.326;19.122;2024-01-30T10:01:32;100405.80;;;18.98;40.21
66801;BME280;53703;50.326;19.122;2024-01-30T10:04:08;100403.66;;;18.97;40.40
66801;BME280;53703;50.326;19.122;2024-01-30T10:06:42;100398.95;;;19.07;39.47
66801;BME280;53703;50.326;19.122;2024-01-30T10:09:16;100398.36;;;19.11;38.84
66801;BME280;53703;50.326;19.122;2024-01-30T10:11:50;100400.57;;;18.96;39.29
66801;BME280;53703;50.326;19.122;2024-01-30T10:14:24;100401.05;;;19.05;39.38
66801;BME280;53703;50.326;19.122;2024-01-30T10:16:58;100398.20;;;18.96;39.52
66801;BME280;53703;50.326;19.122;2024-01-30T10:19:32;100390.21;;;18.87;39.16
66801;BME280;53703;50.326;19.122;2024-01-30T10:22:06;100387.52;;;18.96;38.85
66801;BME280;53703;50.326;19.122;2024-01-30T10:24:40;100384.59;;;18.96;38.72
66801;BME280;53703;50.326;19.122;2024-01-30T10:27:13;100382.27;;;18.94;38.84
66801;BME280;53703;50.326;19.122;2024-01-30T10:29:52;100372.59;;;18.84;38.88
66801;BME280;53703;50.326;19.122;2024-01-30T10:32:26;100372.98;;;18.87;38.86
66801;BME280;53703;50.326;19.122;2024-01-30T10:35:00;100371.16;;;18.86;38.84
66801;BME280;53703;50.326;19.122;2024-01-30T10:37:34;100370.09;;;18.86;38.85
66801;BME280;53703;50.326;19.122;2024-01-30T10:40:11;100362.26;;;18.91;38.65
66801;BME280;53703;50.326;19.122;2024-01-30T10:42:47;100360.02;;;18.92;38.51
66801;BME280;53703;50.326;19.122;2024-01-30T10:45:22;100358.51;;;18.90;38.62
66801;BME280;53703;50.326;19.122;2024-01-30T10:47:56;100357.24;;;18.87;38.75
66801;BME280;53703;50.326;19.122;2024-01-30T10:50:32;100356.37;;;18.82;38.83
66801;BME280;53703;50.326;19.122;2024-01-30T10:53:09;100353.04;;;18.90;38.61
66801;BME280;53703;50.326;19.122;2024-01-30T10:55:44;100353.65;;;18.90;38.57
66801;BME280;53703;50.326;19.122;2024-01-30T10:58:19;100342.17;;;18.86;38.61
66801;BME280;53703;50.326;19.122;2024-01-30T11:00:54;100344.85;;;18.87;38.62
66801;BME280;53703;50.326;19.122;2024-01-30T11:03:29;100342.23;;;18.93;36.43
66801;BME280;53703;50.326;19.122;2024-01-30T11:06:05;100344.38;;;18.96;38.62
66801;BME280;53703;50.326;19.122;2024-01-30T11:08:44;100341.15;;;18.73;38.77
66801;BME280;53703;50.326;19.122;2024-01-30T11:11:19;100335.78;;;18.75;38.67
66801;BME280;53703;50.326;19.122;2024-01-30T11:13:54;100333.44;;;18.81;38.50
66801;BME280;53703;50.326;19.122;2024-01-30T11:16:34;100334.16;;;18.76;38.58
66801;BME280;53703;50.326;19.122;2024-01-30T11:19:11;100334.23;;;18.78;38.54
66801;BME280;53703;50.326;19.122;2024-01-30T11:21:45;100332.02;;;18.85;38.80
66801;BME280;53703;50.326;19.122;2024-01-30T11:24:19;100330.86;;;18.82;39.14
66801;BME280;53703;50.326;19.122;2024-01-30T11:26:58;100329.45;;;18.95;39.42
66801;BME280;53703;50.326;19.122;2024-01-30T11:29:36;100327.91;;;18.99;39.74
66801;BME280;53703;50.326;19.122;2024-01-30T11:32:10;100326.11;;;18.98;40.54
66801;BME280;53703;50.326;19.122;2024-01-30T11:34:45;100323.78;;;18.98;41.74
66801;BME280;53703;50.326;19.122;2024-01-30T11:37:21;100320.30;;;19.03;41.23
66801;BME280;53703;50.326;19.122;2024-01-30T11:39:59;100317.47;;;18.89;40.65
66801;BME280;53703;50.326;19.122;2024-01-30T11:42:35;100316.24;;;18.97;40.04
66801;BME280;53703;50.326;19.122;2024-01-30T11:45:12;100310.23;;;18.82;39.93
66801;BME280;53703;50.326;19.122;2024-01-30T11:47:46;100310.89;;;18.85;39.66
66801;BME280;53703;50.326;19.122;2024-01-30T11:50:20;100303.91;;;18.96;39.41
66801;BME280;53703;50.326;19.122;2024-01-30T11:52:55;100307.23;;;18.95;39.47
66801;BME280;53703;50.326;19.122;2024-01-30T11:55:30;100295.23;;;18.84;39.30
66801;BME280;53703;50.326;19.122;2024-01-30T11:58:07;100294.15;;;18.83;39.45
66801;BME280;53703;50.326;19.122;2024-01-30T12:00:41;100288.83;;;18.78;39.50
66801;BME280;53703;50.326;19.122;2024-01-30T12:03:15;100284.25;;;18.78;39.34
66801;BME280;53703;50.326;19.122;2024-01-30T12:05:56;100278.96;;;18.78;39.38
66801;BME280;53703;50.326;19.122;2024-01-30T12:08:31;100277.22;;;18.75;39.50
66801;BME280;53703;50.326;19.122;2024-01-30T12:11:07;100272.92;;;18.72;39.53
66801;BME280;53703;50.326;19.122;2024-01-30T12:13:41;100275.20;;;18.49;40.09
66801;BME280;53703;50.326;19.122;2024-01-30T12:16:15;100272.88;;;18.37;40.23
66801;BME280;53703;50.326;19.122;2024-01-30T12:18:58;100266.20;;;18.34;40.21
66801;BME280;53703;50.326;19.122;2024-01-30T12:21:37;100259.80;;;18.31;40.21
66801;BME280;53703;50.326;19.122;2024-01-30T12:24:11;100258.23;;;18.46;40.55
66801;BME280;53703;50.326;19.122;2024-01-30T12:26:45;100255.92;;;18.29;41.02
66801;BME280;53703;50.326;19.122;2024-01-30T12:29:19;100254.88;;;18.17;41.10
66801;BME280;53703;50.326;19.122;2024-01-30T12:31:55;100254.77;;;18.16;40.00
66801;BME280;53703;50.326;19.122;2024-01-30T12:34:30;100252.32;;;18.15;40.97
66801;BME280;53703;50.326;19.122;2024-01-30T12:37:10;100251.52;;;18.13;40.46
66801;BME280;53703;50.326;19.122;2024-01-30T12:39:44;100249.72;;;18.15;39.99
66801;BME280;53703;50.326;19.122;2024-01-30T12:42:18;100244.30;;;18.13;39.88
66801;BME280;53703;50.326;19.122;2024-01-30T12:44:52;100241.67;;;18.09;39.70
66801;BME280;53703;50.326;19.122;2024-01-30T12:47:26;100244.38;;;18.10;39.37
66801;BME280;53703;50.326;19.122;2024-01-30T12:50:00;100241.20;;;18.08;39.29
66801;BME280;53703;50.326;19.122;2024-01-30T12:52:34;100236.83;;;18.02;39.17
66801;BME280;53703;50.326;19.122;2024-01-30T12:55:09;100236.84;;;18.04;39.13
66801;BME280;53703;50.326;19.122;2024-01-30T12:57:42;100240.13;;;18.00;39.01
66801;BME280;53703;50.326;19.122;2024-01-30T13:00:16;100234.48;;;17.93;38.91
66801;BME280;53703;50.326;19.122;2024-01-30T13:02:50;100236.52;;;17.93;38.98
66801;BME280;53703;50.326;19.122;2024-01-30T13:05:24;100236.16;;;17.89;38.71
66801;BME280;53703;50.326;19.122;2024-01-30T13:07:57;100236.98;;;17.94;39.08
66801;BME280;53703;50.326;19.122;2024-01-30T13:10:31;100233.13;;;17.92;38.78
66801;BME280;53703;50.326;19.122;2024-01-30T13:13:05;100236.48;;;17.85;38.57
66801;BME280;53703;50.326;19.122;2024-01-30T13:15:48;100236.62;;;17.86;38.88